createdAt,value
2019-05-21T00:02:00.494Z,12.90
2019-05-21T00:06:05.219Z,12.80
2019-05-21T00:10:10.225Z,12.80
2019-05-21T00:14:14.837Z,12.80
2019-05-21T00:18:19.490Z,12.80
2019-05-21T00:22:24.206Z,12.80
2019-05-21T00:26:28.869Z,12.80
2019-05-21T00:31:10.119Z,12.80
2019-05-21T00:35:53.048Z,12.70
2019-05-21T00:40:33.485Z,12.70
2019-05-21T00:44:41.106Z,12.60
2019-05-21T00:48:45.667Z,12.70
2019-05-21T00:52:50.315Z,12.60
2019-05-21T00:56:54.914Z,12.50
2019-05-21T01:00:59.472Z,12.50
2019-05-21T01:05:04.880Z,12.50
2019-05-21T01:09:09.558Z,12.50
2019-05-21T01:13:14.099Z,12.40
2019-05-21T01:17:18.632Z,12.40
2019-05-21T01:21:23.296Z,12.40
2019-05-21T01:25:27.807Z,12.40
2019-05-21T01:29:32.460Z,12.30
2019-05-21T01:33:37.763Z,12.20
2019-05-21T01:37:42.358Z,12.20
2019-05-21T01:41:46.894Z,12.20
2019-05-21T01:49:57.264Z,12.10
2019-05-21T01:54:01.898Z,12.20
2019-05-21T01:58:07.014Z,12.20
2019-05-21T02:02:11.543Z,12.20
2019-05-21T02:06:16.084Z,12.10
2019-05-21T02:10:20.709Z,12.10
2019-05-21T02:14:25.238Z,12.20
2019-05-21T02:18:29.775Z,12.20
2019-05-21T02:22:34.291Z,12.20
2019-05-21T02:26:38.939Z,12.20
2019-05-21T02:30:43.502Z,12.10
2019-05-21T02:34:47.947Z,12.20
2019-05-21T02:38:52.501Z,12.20
2019-05-21T02:42:57.151Z,12.20
2019-05-21T02:47:01.672Z,12.20
2019-05-21T02:51:06.281Z,12.10
2019-05-21T02:55:11.359Z,12.20
2019-05-21T02:59:16.095Z,12.10
2019-05-21T03:03:22.452Z,12.10
2019-05-21T03:07:27.002Z,12.10
2019-05-21T03:11:31.647Z,12.10
2019-05-21T03:15:36.164Z,12.10
2019-05-21T03:19:40.701Z,12.00
2019-05-21T03:23:45.376Z,12.10
2019-05-21T03:27:50.016Z,12.00
2019-05-21T03:31:55.826Z,12.10
2019-05-21T03:36:00.464Z,12.10
2019-05-21T03:40:06.637Z,12.10
2019-05-21T03:44:11.156Z,12.10
2019-05-21T03:48:15.836Z,12.10
2019-05-21T03:52:20.432Z,12.10
2019-05-21T03:56:24.979Z,12.00
2019-05-21T04:00:29.629Z,12.10
2019-05-21T04:04:34.339Z,12.00
2019-05-21T04:08:38.939Z,12.10
2019-05-21T04:12:45.127Z,12.10
2019-05-21T04:16:54.252Z,12.10
2019-05-21T04:20:58.788Z,12.20
2019-05-21T04:25:03.943Z,12.10
2019-05-21T04:29:08.463Z,12.10
2019-05-21T04:33:13.120Z,12.20
2019-05-21T04:37:17.849Z,12.20
2019-05-21T04:41:22.630Z,12.20
2019-05-21T04:45:27.151Z,12.20
2019-05-21T04:49:31.718Z,12.20
2019-05-21T04:53:36.301Z,12.20
2019-05-21T04:57:40.886Z,12.20
2019-05-21T05:01:45.559Z,12.20
2019-05-21T05:05:50.210Z,12.30
2019-05-21T05:09:54.773Z,12.30
2019-05-21T05:13:59.343Z,12.30
2019-05-21T05:18:03.949Z,12.40
2019-05-21T05:22:08.566Z,12.40
2019-05-21T05:26:13.255Z,12.40
2019-05-21T05:30:18.833Z,12.40
2019-05-21T05:34:23.502Z,12.40
2019-05-21T05:38:28.099Z,12.20
2019-05-21T05:42:32.638Z,12.30
2019-05-21T05:46:37.267Z,12.20
2019-05-21T05:50:43.567Z,12.20
2019-05-21T05:54:48.183Z,12.20
2019-05-21T05:58:52.841Z,12.20
2019-05-21T06:02:57.526Z,12.40
2019-05-21T06:07:02.115Z,12.30
2019-05-21T06:11:06.823Z,12.30
2019-05-21T06:15:11.962Z,12.40
2019-05-21T06:19:16.574Z,12.20
2019-05-21T06:23:21.115Z,12.20
2019-05-21T06:31:22.577Z,12.30
2019-05-21T06:35:27.117Z,12.30
2019-05-21T06:39:31.820Z,12.20
2019-05-21T06:43:36.359Z,12.30
2019-05-21T06:47:40.912Z,12.30
2019-05-21T06:51:45.541Z,12.20
2019-05-21T06:55:50.153Z,12.20
2019-05-21T06:59:54.706Z,12.10
2019-05-21T07:03:59.316Z,12.00
2019-05-21T07:08:03.959Z,12.10
2019-05-21T07:12:21.021Z,12.20
2019-05-21T07:16:25.564Z,12.10
2019-05-21T07:20:30.296Z,12.10
2019-05-21T07:24:34.860Z,12.10
2019-05-21T07:28:39.509Z,12.10
2019-05-21T07:32:44.277Z,12.00
2019-05-21T07:36:49.262Z,12.10
2019-05-21T07:40:53.933Z,12.20
2019-05-21T07:44:58.552Z,12.20
2019-05-21T07:49:03.465Z,12.20
2019-05-21T07:53:08.127Z,12.20
2019-05-21T07:57:12.795Z,12.20
2019-05-21T08:01:17.427Z,12.20
2019-05-21T08:05:22.165Z,12.20
2019-05-21T08:09:26.786Z,12.20
2019-05-21T08:13:31.452Z,12.20
2019-05-21T08:17:36.168Z,12.20
2019-05-21T08:21:40.888Z,12.10
2019-05-21T08:25:46.705Z,12.10
2019-05-21T08:29:51.260Z,12.00
2019-05-21T08:33:55.817Z,12.00
2019-05-21T08:38:00.434Z,12.00
2019-05-21T08:42:05.095Z,12.00
2019-05-21T08:46:09.843Z,12.10
2019-05-21T08:50:14.784Z,11.90
2019-05-21T08:54:20.967Z,12.00
2019-05-21T08:58:25.762Z,12.10
2019-05-21T09:02:30.308Z,12.00
2019-05-21T09:06:34.895Z,12.10
2019-05-21T09:10:41.851Z,12.20
2019-05-21T09:14:46.369Z,12.20
2019-05-21T09:18:50.924Z,12.20
2019-05-21T09:22:55.468Z,12.20
2019-05-21T09:27:00.162Z,12.20
2019-05-21T09:31:04.810Z,12.30
2019-05-21T09:35:10.880Z,12.20
2019-05-21T09:39:15.545Z,12.30
2019-05-21T09:43:20.188Z,12.20
2019-05-21T09:47:24.918Z,12.30
2019-05-21T09:51:29.599Z,12.30
2019-05-21T09:55:34.262Z,12.30
2019-05-21T09:59:40.559Z,12.20
2019-05-21T10:03:47.044Z,12.20
2019-05-21T10:07:51.699Z,12.20
2019-05-21T10:11:56.335Z,12.20
2019-05-21T10:16:01.569Z,12.20
2019-05-21T10:20:06.679Z,12.20
2019-05-21T10:24:11.235Z,12.20
2019-05-21T10:28:15.841Z,12.20
2019-05-21T10:32:20.387Z,12.20
2019-05-21T10:36:24.977Z,12.20
2019-05-21T10:40:29.710Z,12.30
2019-05-21T10:44:34.615Z,12.30
2019-05-21T10:48:39.164Z,12.20
2019-05-21T10:52:43.706Z,12.20
2019-05-21T10:56:48.715Z,12.10
2019-05-21T11:00:55.510Z,12.10
2019-05-21T11:05:01.825Z,12.10
2019-05-21T11:09:09.027Z,12.20
2019-05-21T11:13:13.803Z,12.20
2019-05-21T11:17:18.389Z,12.30
2019-05-21T11:21:22.906Z,12.20
2019-05-21T11:25:27.457Z,12.30
2019-05-21T11:29:41.258Z,12.30
2019-05-21T11:33:46.346Z,12.30
2019-05-21T11:37:50.960Z,12.40
2019-05-21T11:41:55.593Z,12.40
2019-05-21T11:46:02.966Z,12.40
2019-05-21T11:50:08.044Z,12.50
2019-05-21T11:54:12.693Z,12.50
2019-05-21T11:58:17.310Z,12.50
2019-05-21T12:02:22.082Z,12.50
2019-05-21T12:06:26.696Z,12.60
2019-05-21T12:10:31.314Z,12.50
2019-05-21T12:14:35.944Z,12.50
2019-05-21T12:18:40.494Z,12.60
2019-05-21T12:22:45.124Z,12.50
2019-05-21T12:26:49.670Z,12.60
2019-05-21T12:30:54.281Z,12.50
2019-05-21T12:34:58.852Z,12.50
2019-05-21T12:39:13.754Z,12.50
2019-05-21T12:43:10.325Z,12.50
2019-05-21T12:47:14.997Z,12.60
2019-05-21T12:51:19.558Z,12.60
2019-05-21T12:55:24.214Z,12.70
2019-05-21T12:59:28.740Z,12.60
2019-05-21T13:03:33.303Z,12.70
2019-05-21T13:07:37.858Z,12.70
2019-05-21T13:11:42.391Z,12.70
2019-05-21T13:15:46.971Z,12.70
2019-05-21T13:19:51.498Z,12.60
2019-05-21T13:23:56.221Z,12.60
2019-05-21T13:28:00.759Z,12.70
2019-05-21T13:32:05.551Z,12.70
2019-05-21T13:36:10.242Z,12.70
2019-05-21T13:40:18.158Z,12.70
2019-05-21T13:44:21.663Z,12.70
2019-05-21T13:48:25.928Z,12.70
2019-05-21T13:52:30.779Z,12.70
2019-05-21T13:56:35.866Z,12.60
2019-05-21T14:00:42.179Z,12.70
2019-05-21T14:04:46.851Z,12.60
2019-05-21T14:08:51.447Z,12.60
2019-05-21T14:12:56.078Z,12.60
2019-05-21T14:17:00.717Z,12.50
2019-05-21T14:21:05.549Z,12.60
2019-05-21T14:25:10.417Z,12.70
2019-05-21T14:29:15.037Z,12.60
2019-05-21T14:33:19.699Z,12.60
2019-05-21T14:37:24.499Z,12.60
2019-05-21T14:41:29.217Z,12.60
2019-05-21T14:45:34.704Z,12.70
2019-05-21T14:49:39.413Z,12.70
2019-05-21T14:53:43.964Z,12.70
2019-05-21T14:57:48.746Z,12.70
2019-05-21T15:01:53.389Z,12.70
2019-05-21T15:05:58.034Z,12.70
2019-05-21T15:10:02.736Z,12.80
2019-05-21T15:14:07.468Z,12.70
2019-05-21T15:18:19.553Z,12.70
2019-05-21T15:22:18.701Z,12.70
2019-05-21T15:26:23.325Z,12.80
2019-05-21T15:30:29.427Z,12.80
2019-05-21T15:34:34.275Z,12.70
2019-05-21T15:38:49.219Z,12.70
2019-05-21T15:42:45.155Z,12.70
2019-05-21T15:46:50.769Z,12.60
2019-05-21T15:50:56.258Z,12.60
2019-05-21T15:55:00.864Z,12.60
2019-05-21T15:59:05.992Z,12.60
2019-05-21T16:03:10.562Z,12.60
2019-05-21T16:07:15.101Z,12.60
2019-05-21T16:11:28.409Z,12.50
2019-05-21T16:15:25.928Z,12.40
2019-05-21T16:19:30.603Z,12.40
2019-05-21T16:23:35.313Z,12.30
2019-05-21T16:27:40.085Z,12.50
2019-05-21T16:31:44.629Z,12.40
2019-05-21T16:35:49.473Z,12.40
2019-05-21T16:39:54.212Z,12.40
2019-05-21T16:43:58.835Z,12.40
2019-05-21T16:48:03.492Z,12.30
2019-05-21T16:52:08.007Z,12.30
2019-05-21T16:56:12.565Z,12.30
2019-05-21T17:00:18.322Z,12.20
2019-05-21T17:04:22.918Z,12.20
2019-05-21T17:08:27.540Z,12.30
2019-05-21T17:12:32.165Z,12.40
2019-05-21T17:16:36.910Z,12.20
2019-05-21T17:20:41.598Z,12.20
2019-05-21T17:24:46.179Z,12.20
2019-05-21T17:28:50.888Z,12.10
2019-05-21T17:32:55.485Z,12.10
2019-05-21T17:37:00.092Z,12.00
2019-05-21T17:41:04.820Z,12.00
2019-05-21T17:45:09.857Z,12.10
2019-05-21T17:49:14.537Z,12.10
2019-05-21T17:53:19.155Z,12.10
2019-05-21T17:57:24.072Z,12.10
2019-05-21T18:01:28.981Z,12.10
2019-05-21T18:05:33.936Z,12.10
2019-05-21T18:09:39.004Z,12.00
2019-05-21T18:13:44.196Z,12.00
2019-05-21T18:17:49.069Z,12.00
2019-05-21T18:21:54.150Z,12.00
2019-05-21T18:25:58.694Z,12.00
2019-05-21T18:30:04.803Z,12.00
2019-05-21T18:34:09.501Z,12.10
2019-05-21T18:38:14.542Z,12.00
2019-05-21T18:42:22.244Z,12.00
2019-05-21T18:46:25.632Z,12.10
2019-05-21T18:50:36.395Z,12.00
2019-05-21T18:54:36.897Z,12.00
2019-05-21T18:58:41.683Z,12.00
2019-05-21T19:02:46.423Z,12.00
2019-05-21T19:06:51.053Z,11.90
2019-05-21T19:10:55.751Z,11.90
2019-05-21T19:15:00.612Z,11.90
2019-05-21T19:19:05.461Z,11.90
2019-05-21T19:23:10.105Z,11.80
2019-05-21T19:27:17.807Z,11.80
2019-05-21T19:31:22.372Z,11.90
2019-05-21T19:35:27.286Z,11.80
2019-05-21T19:39:32.671Z,11.90
2019-05-21T19:43:37.291Z,11.80
2019-05-21T19:47:41.948Z,11.90
2019-05-21T19:51:46.512Z,11.80
2019-05-21T19:55:51.449Z,11.80
2019-05-21T19:59:56.120Z,11.70
2019-05-21T20:04:00.938Z,11.80
2019-05-21T20:08:06.128Z,11.70
2019-05-21T20:12:11.088Z,11.70
2019-05-21T20:16:16.803Z,11.70
2019-05-21T20:20:23.555Z,11.60
2019-05-21T20:24:29.001Z,11.60
2019-05-21T20:28:33.740Z,11.60
2019-05-21T20:32:40.141Z,11.50
2019-05-21T20:36:45.026Z,11.50
2019-05-21T20:40:49.606Z,11.60
2019-05-21T20:44:54.224Z,11.60
2019-05-21T20:48:59.739Z,11.60
2019-05-21T20:53:05.046Z,11.60
2019-05-21T20:57:11.037Z,11.60
2019-05-21T21:01:15.647Z,11.60
2019-05-21T21:05:21.183Z,11.50
2019-05-21T21:09:25.744Z,11.50
2019-05-21T21:13:30.369Z,11.50
2019-05-21T21:17:35.330Z,11.50
2019-05-21T21:21:40.328Z,11.40
2019-05-21T21:25:45.387Z,11.40
2019-05-21T21:29:49.971Z,11.30
2019-05-21T21:33:54.836Z,11.30
2019-05-21T21:38:01.291Z,11.30
2019-05-21T21:42:07.074Z,11.30
2019-05-21T21:46:11.893Z,11.30
2019-05-21T21:50:17.491Z,11.30
2019-05-21T21:54:22.691Z,11.30
2019-05-21T21:58:27.253Z,11.30
2019-05-21T22:02:34.598Z,11.30
2019-05-21T22:06:41.449Z,11.30
2019-05-21T22:10:46.265Z,11.30
2019-05-21T22:14:56.971Z,11.30
2019-05-21T22:19:01.687Z,11.30
2019-05-21T22:23:06.913Z,11.30
2019-05-21T22:27:11.602Z,11.30
2019-05-21T22:31:16.216Z,11.30
2019-05-21T22:35:21.160Z,11.20
2019-05-21T22:39:27.771Z,11.30
2019-05-21T22:43:32.858Z,11.20
2019-05-21T22:47:37.468Z,11.20
2019-05-21T22:51:42.097Z,11.30
2019-05-21T22:55:46.643Z,11.20
2019-05-21T22:59:51.352Z,11.20
2019-05-21T23:03:56.698Z,11.20
2019-05-21T23:08:01.668Z,11.30
2019-05-21T23:12:07.993Z,11.20
2019-05-21T23:16:12.622Z,11.20
2019-05-21T23:20:18.770Z,11.20
2019-05-21T23:24:23.505Z,11.20
2019-05-21T23:28:29.250Z,11.20
2019-05-21T23:32:34.356Z,11.20
2019-05-21T23:36:40.760Z,11.20
2019-05-21T23:40:46.501Z,11.20
2019-05-21T23:44:51.142Z,11.30
2019-05-21T23:48:55.749Z,11.20
2019-05-21T23:53:00.358Z,11.20
2019-05-21T23:57:05.406Z,11.20
